Irrigon, Oregon
Current Conditions -  °F | °C
As of 7:06 PM on Friday 21 Nov 2014 (Local Time) from KHRI Reporting Station
Haze Haze  
Wind Chill: 29°   Ceiling: 6000
Heat Index: 35°   Visibility: 1mi
Dew Point: 33°   Wind: 7mph
Humidity: 92%   Direction: 260°W
Pressure: 29.46"   Gusts: NA
Location:  45.9°N, 119.49°W
Report Text: KHRI 220306Z AUTO 26006KT 1SM BR FEW050 OVC060 02/01 A2946 RMK AO2 T00170006
Loading
Personal Weather Stations






























Interactive Weather Map New forecast layout! Learn more

10-Day Weather Forecast

Advertisements
Track Severe Weather on mobile